^^
Saratoga-Weather Station Historical Data
Daily Summary for June 22, 2020 Units:  Both    English   Metric
Daily Weekly Monthly Yearly Custom
  High: Low: Average:
Temperature: 80.8 °F /  27.1 °C 49.3 °F /  9.6 °C 64.6 °F /  18.1 °C
Dew Point: 59.7 °F /  15.4 °C 44.8 °F /  7.1 °C 48.9 °F /  9.4 °C
Humidity: 90% 32% 61%
Wind Speed: 8.9mph /  14.3km/h - 1.2mph /  1.9km/h
Wind Gust: 10mph /  16.1km/h - -
Wind- - SW
Pressure: 29.9 in /  1012.5 hPa 29.7 in /  1006.4 hPa -
Precipitation: 0 in /  0.0 mm    
Historical Graphs
 
 
Tabular Data for June 22, 2020
Time Temperature Dew Point Pressure Wind Wind Speed Wind Gust Humidity Rainfall Rate (Hourly) solar
00:00 57.6 °F /  14.2 °C 48.2 °F /  9 °C 29.9in /  1012.5hPa Calm     71% 0in /  0.0mm 0 W/m2
00:05 57.4 °F /  14.1 °C 48 °F /  8.9 °C 29.9in /  1012.5hPa Calm     71% 0in /  0.0mm 0 W/m2
00:10 57.4 °F /  14.1 °C 48 °F /  8.9 °C 29.9in /  1012.5hPa Calm     71% 0in /  0.0mm 0 W/m2
00:15 57 °F /  13.9 °C 48 °F /  8.9 °C 29.9in /  1012.2hPa Calm     72% 0in /  0.0mm 0 W/m2
00:20 56.8 °F /  13.8 °C 47.8 °F /  8.8 °C 29.9in /  1012.5hPa Calm     72% 0in /  0.0mm 0 W/m2
00:25 56.8 °F /  13.8 °C 47.8 °F /  8.8 °C 29.9in /  1012.2hPa Calm   1mph /  1.6km/h 72% 0in /  0.0mm 0 W/m2
00:30 56.7 °F /  13.7 °C 48 °F /  8.9 °C 29.9in /  1012.5hPa Calm     73% 0in /  0.0mm 0 W/m2
00:35 56.7 °F /  13.7 °C 48 °F /  8.9 °C 29.9in /  1012.5hPa Calm     73% 0in /  0.0mm 0 W/m2
00:40 56.7 °F /  13.7 °C 48 °F /  8.9 °C 29.9in /  1012.5hPa Calm     73% 0in /  0.0mm 0 W/m2
00:45 56.5 °F /  13.6 °C 48 °F /  8.9 °C 29.9in /  1012.5hPa Calm   1mph /  1.6km/h 73% 0in /  0.0mm 0 W/m2
00:50 56.5 °F /  13.6 °C 48 °F /  8.9 °C 29.9in /  1012.2hPa Calm     73% 0in /  0.0mm 0 W/m2
00:55 56.3 °F /  13.5 °C 48.2 °F /  9 °C 29.9in /  1012.2hPa SSW 0.9mph /  1.4km/h 1mph /  1.6km/h 74% 0in /  0.0mm 0 W/m2
01:00 56.3 °F /  13.5 °C 48.2 °F /  9 °C 29.9in /  1012.2hPa Calm   1mph /  1.6km/h 74% 0in /  0.0mm 0 W/m2
01:05 56.3 °F /  13.5 °C 48.2 °F /  9 °C 29.9in /  1012.2hPa Calm   2mph /  3.2km/h 74% 0in /  0.0mm 0 W/m2
01:10 56.1 °F /  13.4 °C 48 °F /  8.9 °C 29.9in /  1012.2hPa Calm   1mph /  1.6km/h 74% 0in /  0.0mm 0 W/m2
01:15 55.9 °F /  13.3 °C 47.8 °F /  8.8 °C 29.9in /  1012.2hPa Calm   2mph /  3.2km/h 74% 0in /  0.0mm 0 W/m2
01:20 55.8 °F /  13.2 °C 47.7 °F /  8.7 °C 29.9in /  1012.2hPa Calm     74% 0in /  0.0mm 0 W/m2
01:25 55.6 °F /  13.1 °C 47.8 °F /  8.8 °C 29.9in /  1012.2hPa Calm     75% 0in /  0.0mm 0 W/m2
01:30 55.2 °F /  12.9 °C 47.5 °F /  8.6 °C 29.9in /  1012.2hPa Calm     75% 0in /  0.0mm 0 W/m2
01:36 55 °F /  12.8 °C 47.7 °F /  8.7 °C 29.9in /  1012.2hPa Calm     76% 0in /  0.0mm 0 W/m2
01:41 54.9 °F /  12.7 °C 47.8 °F /  8.8 °C 29.9in /  1012.2hPa Calm     77% 0in /  0.0mm 0 W/m2
01:46 54.7 °F /  12.6 °C 48 °F /  8.9 °C 29.9in /  1012.2hPa Calm     78% 0in /  0.0mm 0 W/m2
01:51 54.7 °F /  12.6 °C 48 °F /  8.9 °C 29.9in /  1012.2hPa SSW 0.9mph /  1.4km/h 1mph /  1.6km/h 78% 0in /  0.0mm 0 W/m2
01:56 54.5 °F /  12.5 °C 47.8 °F /  8.8 °C 29.9in /  1011.9hPa Calm     78% 0in /  0.0mm 0 W/m2
02:01 54.5 °F /  12.5 °C 48.2 °F /  9 °C 29.9in /  1011.9hPa Calm     79% 0in /  0.0mm 0 W/m2
02:06 54.3 °F /  12.4 °C 48 °F /  8.9 °C 29.9in /  1011.9hPa Calm     79% 0in /  0.0mm 0 W/m2
02:11 54.3 °F /  12.4 °C 48 °F /  8.9 °C 29.9in /  1011.9hPa Calm     79% 0in /  0.0mm 0 W/m2
02:16 54.1 °F /  12.3 °C 48 °F /  8.9 °C 29.9in /  1012.2hPa Calm     80% 0in /  0.0mm 0 W/m2
02:21 54.1 °F /  12.3 °C 48 °F /  8.9 °C 29.9in /  1011.9hPa Calm     80% 0in /  0.0mm 0 W/m2
02:26 54.1 °F /  12.3 °C 48 °F /  8.9 °C 29.9in /  1011.9hPa Calm     80% 0in /  0.0mm 0 W/m2
02:31 54.1 °F /  12.3 °C 48 °F /  8.9 °C 29.9in /  1011.9hPa Calm   1mph /  1.6km/h 80% 0in /  0.0mm 0 W/m2
02:36 54 °F /  12.2 °C 48 °F /  8.9 °C 29.9in /  1011.9hPa Calm   1mph /  1.6km/h 80% 0in /  0.0mm 0 W/m2
02:41 54 °F /  12.2 °C 48 °F /  8.9 °C 29.9in /  1011.9hPa Calm     80% 0in /  0.0mm 0 W/m2
02:46 53.8 °F /  12.1 °C 47.8 °F /  8.8 °C 29.9in /  1011.9hPa Calm     80% 0in /  0.0mm 0 W/m2
02:51 53.6 °F /  12 °C 47.7 °F /  8.7 °C 29.9in /  1011.9hPa Calm     80% 0in /  0.0mm 0 W/m2
02:56 53.4 °F /  11.9 °C 47.7 °F /  8.7 °C 29.9in /  1011.9hPa Calm     81% 0in /  0.0mm 0 W/m2
03:01 53.2 °F /  11.8 °C 47.5 °F /  8.6 °C 29.9in /  1011.9hPa Calm     81% 0in /  0.0mm 0 W/m2
03:06 53.2 °F /  11.8 °C 47.5 °F /  8.6 °C 29.9in /  1011.9hPa Calm     81% 0in /  0.0mm 0 W/m2
03:11 53.1 °F /  11.7 °C 47.7 °F /  8.7 °C 29.9in /  1011.9hPa Calm     82% 0in /  0.0mm 0 W/m2
03:16 53.1 °F /  11.7 °C 47.7 °F /  8.7 °C 29.9in /  1011.9hPa Calm     82% 0in /  0.0mm 0 W/m2
03:21 53.1 °F /  11.7 °C 47.7 °F /  8.7 °C 29.9in /  1011.9hPa Calm     82% 0in /  0.0mm 0 W/m2
03:26 53.1 °F /  11.7 °C 47.7 °F /  8.7 °C 29.9in /  1011.9hPa Calm     82% 0in /  0.0mm 0 W/m2
03:31 53.1 °F /  11.7 °C 47.7 °F /  8.7 °C 29.9in /  1011.9hPa Calm     82% 0in /  0.0mm 0 W/m2
03:36 52.9 °F /  11.6 °C 47.5 °F /  8.6 °C 29.9in /  1011.9hPa Calm   1mph /  1.6km/h 82% 0in /  0.0mm 0 W/m2
03:41 52.7 °F /  11.5 °C 47.3 °F /  8.5 °C 29.9in /  1011.9hPa Calm     82% 0in /  0.0mm 0 W/m2
03:46 52.5 °F /  11.4 °C 47.1 °F /  8.4 °C 29.9in /  1011.9hPa Calm   1mph /  1.6km/h 82% 0in /  0.0mm 0 W/m2
03:51 52.3 °F /  11.3 °C 46.9 °F /  8.3 °C 29.9in /  1011.5hPa Calm     82% 0in /  0.0mm 0 W/m2
03:56 52.2 °F /  11.2 °C 47.1 °F /  8.4 °C 29.9in /  1011.5hPa Calm     83% 0in /  0.0mm 0 W/m2
04:01 52.2 °F /  11.2 °C 47.1 °F /  8.4 °C 29.9in /  1011.5hPa Calm     83% 0in /  0.0mm 0 W/m2
04:06 52 °F /  11.1 °C 46.9 °F /  8.3 °C 29.9in /  1011.5hPa Calm     83% 0in /  0.0mm 0 W/m2
04:11 51.8 °F /  11 °C 46.8 °F /  8.2 °C 29.9in /  1011.5hPa Calm     83% 0in /  0.0mm 0 W/m2
04:16 51.6 °F /  10.9 °C 46.9 °F /  8.3 °C 29.9in /  1011.5hPa Calm     84% 0in /  0.0mm 0 W/m2
04:21 51.4 °F /  10.8 °C 46.8 °F /  8.2 °C 29.9in /  1011.5hPa Calm     84% 0in /  0.0mm 0 W/m2
04:26 51.4 °F /  10.8 °C 46.8 °F /  8.2 °C 29.9in /  1011.5hPa Calm   1mph /  1.6km/h 84% 0in /  0.0mm 0 W/m2
04:31 51.4 °F /  10.8 °C 46.8 °F /  8.2 °C 29.9in /  1011.5hPa West 0.9mph /  1.4km/h 1mph /  1.6km/h 84% 0in /  0.0mm 0 W/m2
04:36 51.6 °F /  10.9 °C 46.9 °F /  8.3 °C 29.9in /  1011.5hPa Calm   1mph /  1.6km/h 84% 0in /  0.0mm 0 W/m2
04:41 52 °F /  11.1 °C 47.3 °F /  8.5 °C 29.9in /  1011.5hPa Calm     84% 0in /  0.0mm 0 W/m2
04:46 52 °F /  11.1 °C 46.9 °F /  8.3 °C 29.9in /  1011.5hPa Calm     83% 0in /  0.0mm 0 W/m2
04:51 51.8 °F /  11 °C 46.8 °F /  8.2 °C 29.9in /  1011.5hPa Calm     83% 0in /  0.0mm 0 W/m2
04:56 51.6 °F /  10.9 °C 46.9 °F /  8.3 °C 29.9in /  1011.5hPa Calm     84% 0in /  0.0mm 0 W/m2
05:01 51.4 °F /  10.8 °C 46.8 °F /  8.2 °C 29.9in /  1011.5hPa Calm     84% 0in /  0.0mm 0 W/m2
05:06 51.4 °F /  10.8 °C 46.8 °F /  8.2 °C 29.9in /  1011.2hPa Calm     84% 0in /  0.0mm 0 W/m2
05:11 51.3 °F /  10.7 °C 46.6 °F /  8.1 °C 29.9in /  1011.2hPa Calm     84% 0in /  0.0mm 0 W/m2
05:16 51.1 °F /  10.6 °C 46.8 °F /  8.2 °C 29.9in /  1011.2hPa Calm     85% 0in /  0.0mm 0 W/m2
05:21 50.9 °F /  10.5 °C 46.6 °F /  8.1 °C 29.9in /  1011.2hPa Calm     85% 0in /  0.0mm 0 W/m2
05:26 50.7 °F /  10.4 °C 46.4 °F /  8 °C 29.9in /  1011.2hPa Calm     85% 0in /  0.0mm 0 W/m2
05:31 50.5 °F /  10.3 °C 46.6 °F /  8.1 °C 29.9in /  1011.2hPa Calm     86% 0in /  0.0mm 0 W/m2
05:36 50.5 °F /  10.3 °C 46.6 °F /  8.1 °C 29.9in /  1011.2hPa Calm     86% 0in /  0.0mm 0 W/m2
05:41 50.4 °F /  10.2 °C 46.4 °F /  8 °C 29.9in /  1011.2hPa Calm     86% 0in /  0.0mm 0 W/m2
05:46 50.4 °F /  10.2 °C 46.6 °F /  8.1 °C 29.9in /  1011.2hPa Calm     87% 0in /  0.0mm 0 W/m2
05:51 50.4 °F /  10.2 °C 46.6 °F /  8.1 °C 29.9in /  1011.2hPa Calm     87% 0in /  0.0mm 0 W/m2
05:56 50.4 °F /  10.2 °C 46.6 °F /  8.1 °C 29.9in /  1011.2hPa Calm     87% 0in /  0.0mm 0 W/m2
06:01 50.4 °F /  10.2 °C 46.6 °F /  8.1 °C 29.9in /  1011.2hPa Calm     87% 0in /  0.0mm 0 W/m2
06:06 50.2 °F /  10.1 °C 46.4 °F /  8 °C 29.9in /  1011.2hPa Calm     87% 0in /  0.0mm 0 W/m2
06:11 50.2 °F /  10.1 °C 46.4 °F /  8 °C 29.9in /  1011.2hPa Calm     87% 0in /  0.0mm 0 W/m2
06:16 50 °F /  10 °C 46.6 °F /  8.1 °C 29.9in /  1011.2hPa Calm     88% 0in /  0.0mm 0 W/m2
06:21 49.8 °F /  9.9 °C 46.4 °F /  8 °C 29.9in /  1011.2hPa Calm     88% 0in /  0.0mm 0 W/m2
06:26 49.8 °F /  9.9 °C 46.4 °F /  8 °C 29.9in /  1011.2hPa Calm     88% 0in /  0.0mm 0 W/m2
06:31 49.8 °F /  9.9 °C 46.4 °F /  8 °C 29.9in /  1011.2hPa Calm     88% 0in /  0.0mm 0 W/m2
06:36 49.6 °F /  9.8 °C 46.2 °F /  7.9 °C 29.9in /  1011.2hPa Calm     88% 0in /  0.0mm 0 W/m2
06:41 49.6 °F /  9.8 °C 46.2 °F /  7.9 °C 29.9in /  1011.2hPa Calm     88% 0in /  0.0mm 0 W/m2
06:46 49.6 °F /  9.8 °C 46.6 °F /  8.1 °C 29.9in /  1010.8hPa Calm     89% 0in /  0.0mm 0 W/m2
06:51 49.5 °F /  9.7 °C 46.4 °F /  8 °C 29.9in /  1011.2hPa Calm     89% 0in /  0.0mm 0 W/m2
06:57 49.5 °F /  9.7 °C 46.4 °F /  8 °C 29.9in /  1011.2hPa Calm     89% 0in /  0.0mm 0 W/m2
07:02 49.3 °F /  9.6 °C 46.2 °F /  7.9 °C 29.9in /  1011.2hPa Calm     89% 0in /  0.0mm 0 W/m2
07:07 49.3 °F /  9.6 °C 46.2 °F /  7.9 °C 29.9in /  1011.2hPa Calm     89% 0in /  0.0mm 0 W/m2
07:12 49.5 °F /  9.7 °C 46.6 °F /  8.1 °C 29.9in /  1011.2hPa Calm     90% 0in /  0.0mm 0 W/m2
07:17 49.5 °F /  9.7 °C 46.6 °F /  8.1 °C 29.9in /  1011.2hPa Calm     90% 0in /  0.0mm 0 W/m2
07:22 49.5 °F /  9.7 °C 46.6 °F /  8.1 °C 29.9in /  1011.2hPa Calm     90% 0in /  0.0mm 0 W/m2
07:27 49.6 °F /  9.8 °C 46.6 °F /  8.1 °C 29.9in /  1011.2hPa Calm     89% 0in /  0.0mm 5 W/m2
07:32 49.5 °F /  9.7 °C 46.4 °F /  8 °C 29.9in /  1011.2hPa Calm     89% 0in /  0.0mm 7 W/m2
07:37 49.5 °F /  9.7 °C 46.4 °F /  8 °C 29.9in /  1011.2hPa Calm     89% 0in /  0.0mm 9 W/m2
07:42 49.5 °F /  9.7 °C 46.4 °F /  8 °C 29.9in /  1011.2hPa Calm     89% 0in /  0.0mm 11 W/m2
07:47 49.5 °F /  9.7 °C 46.4 °F /  8 °C 29.9in /  1011.2hPa Calm     89% 0in /  0.0mm 12 W/m2
07:52 49.3 °F /  9.6 °C 46.2 °F /  7.9 °C 29.9in /  1011.5hPa Calm     89% 0in /  0.0mm 14 W/m2
07:57 49.3 °F /  9.6 °C 46.2 °F /  7.9 °C 29.9in /  1011.5hPa Calm     89% 0in /  0.0mm 16 W/m2
08:02 49.3 °F /  9.6 °C 46.2 °F /  7.9 °C 29.9in /  1011.2hPa Calm     89% 0in /  0.0mm 18 W/m2
08:07 49.3 °F /  9.6 °C 46.4 °F /  8 °C 29.9in /  1011.5hPa Calm     90% 0in /  0.0mm 19 W/m2
08:12 49.5 °F /  9.7 °C 46.6 °F /  8.1 °C 29.9in /  1011.5hPa Calm     90% 0in /  0.0mm 21 W/m2
08:17 49.5 °F /  9.7 °C 46.6 °F /  8.1 °C 29.9in /  1011.5hPa Calm     90% 0in /  0.0mm 23 W/m2
08:22 49.6 °F /  9.8 °C 46.8 °F /  8.2 °C 29.9in /  1011.5hPa Calm     90% 0in /  0.0mm 25 W/m2
08:27 49.8 °F /  9.9 °C 46.9 °F /  8.3 °C 29.9in /  1011.5hPa Calm     90% 0in /  0.0mm 26 W/m2
08:32 50.2 °F /  10.1 °C 47.3 °F /  8.5 °C 29.9in /  1011.5hPa Calm     90% 0in /  0.0mm 28 W/m2
08:37 50.4 °F /  10.2 °C 47.3 °F /  8.5 °C 29.9in /  1011.5hPa Calm     89% 0in /  0.0mm 28 W/m2
08:42 50.5 °F /  10.3 °C 47.5 °F /  8.6 °C 29.9in /  1011.5hPa Calm     89% 0in /  0.0mm 30 W/m2
08:47 50.9 °F /  10.5 °C 47.8 °F /  8.8 °C 29.9in /  1011.5hPa Calm     89% 0in /  0.0mm 32 W/m2
08:52 51.3 °F /  10.7 °C 47.8 °F /  8.8 °C 29.9in /  1011.5hPa Calm     88% 0in /  0.0mm 35 W/m2
08:57 51.6 °F /  10.9 °C 48.2 °F /  9 °C 29.9in /  1011.5hPa Calm     88% 0in /  0.0mm 33 W/m2
09:02 52 °F /  11.1 °C 48.2 °F /  9 °C 29.9in /  1011.5hPa Calm     87% 0in /  0.0mm 35 W/m2
09:07 52.2 °F /  11.2 °C 48.4 °F /  9.1 °C 29.9in /  1011.5hPa Calm     87% 0in /  0.0mm 132 W/m2
09:12 52.5 °F /  11.4 °C 48.4 °F /  9.1 °C 29.9in /  1011.5hPa Calm     86% 0in /  0.0mm 46 W/m2
09:17 53.2 °F /  11.8 °C 48.9 °F /  9.4 °C 29.9in /  1011.5hPa Calm     85% 0in /  0.0mm 39 W/m2
09:22 54 °F /  12.2 °C 49.3 °F /  9.6 °C 29.9in /  1011.5hPa West 0.9mph /  1.4km/h 1mph /  1.6km/h 84% 0in /  0.0mm 40 W/m2
09:27 54.7 °F /  12.6 °C 49.6 °F /  9.8 °C 29.9in /  1011.5hPa NW 0.9mph /  1.4km/h 2mph /  3.2km/h 83% 0in /  0.0mm 40 W/m2
09:32 55.2 °F /  12.9 °C 49.5 °F /  9.7 °C 29.9in /  1011.5hPa Calm     81% 0in /  0.0mm 40 W/m2
09:37 55.8 °F /  13.2 °C 49.6 °F /  9.8 °C 29.9in /  1011.5hPa Calm   1mph /  1.6km/h 80% 0in /  0.0mm 40 W/m2
09:42 56.3 °F /  13.5 °C 49.8 °F /  9.9 °C 29.9in /  1011.5hPa Calm   1mph /  1.6km/h 79% 0in /  0.0mm 42 W/m2
09:47 57 °F /  13.9 °C 50.2 °F /  10.1 °C 29.9in /  1011.5hPa Calm   1mph /  1.6km/h 78% 0in /  0.0mm 42 W/m2
09:52 57.7 °F /  14.3 °C 50.5 °F /  10.3 °C 29.9in /  1011.5hPa Calm   1mph /  1.6km/h 77% 0in /  0.0mm 44 W/m2
09:57 58.5 °F /  14.7 °C 50.5 °F /  10.3 °C 29.9in /  1011.5hPa Calm     75% 0in /  0.0mm 44 W/m2
10:02 58.8 °F /  14.9 °C 51.3 °F /  10.7 °C 29.9in /  1011.5hPa Calm     76% 0in /  0.0mm 46 W/m2
10:07 59.7 °F /  15.4 °C 51.1 °F /  10.6 °C 29.9in /  1011.5hPa Calm   2mph /  3.2km/h 73% 0in /  0.0mm 47 W/m2
10:12 60.3 °F /  15.7 °C 51.3 °F /  10.7 °C 29.9in /  1011.5hPa Calm   1mph /  1.6km/h 72% 0in /  0.0mm 47 W/m2
10:17 60.6 °F /  15.9 °C 51.1 °F /  10.6 °C 29.9in /  1011.2hPa East 0.9mph /  1.4km/h 2mph /  3.2km/h 71% 0in /  0.0mm 47 W/m2
10:22 61.2 °F /  16.2 °C 51.3 °F /  10.7 °C 29.9in /  1011.2hPa NE 0.9mph /  1.4km/h 2mph /  3.2km/h 70% 0in /  0.0mm 49 W/m2
10:27 61.5 °F /  16.4 °C 51.3 °F /  10.7 °C 29.9in /  1011.2hPa NNE 0.9mph /  1.4km/h 3mph /  4.8km/h 69% 0in /  0.0mm 51 W/m2
10:32 61.5 °F /  16.4 °C 51.6 °F /  10.9 °C 29.9in /  1011.2hPa WNW 0.9mph /  1.4km/h 2mph /  3.2km/h 70% 0in /  0.0mm 51 W/m2
10:37 61.7 °F /  16.5 °C 51.1 °F /  10.6 °C 29.9in /  1011.2hPa Calm   2mph /  3.2km/h 68% 0in /  0.0mm 53 W/m2
10:42 61.9 °F /  16.6 °C 51.6 °F /  10.9 °C 29.9in /  1011.2hPa North 0.9mph /  1.4km/h 2mph /  3.2km/h 69% 0in /  0.0mm 53 W/m2
10:48 62.1 °F /  16.7 °C 51.8 °F /  11 °C 29.9in /  1010.8hPa Calm   2mph /  3.2km/h 69% 0in /  0.0mm 54 W/m2
10:53 62.4 °F /  16.9 °C 52.2 °F /  11.2 °C 29.9in /  1010.8hPa Calm   2mph /  3.2km/h 69% 0in /  0.0mm 54 W/m2
10:58 63.1 °F /  17.3 °C 52.3 °F /  11.3 °C 29.9in /  1010.8hPa ESE 0.9mph /  1.4km/h 1mph /  1.6km/h 68% 0in /  0.0mm 56 W/m2
11:03 63.7 °F /  17.6 °C 52.5 °F /  11.4 °C 29.9in /  1010.8hPa ENE 0.9mph /  1.4km/h 3mph /  4.8km/h 67% 0in /  0.0mm 58 W/m2
11:08 64 °F /  17.8 °C 52.9 °F /  11.6 °C 29.9in /  1010.8hPa East 0.9mph /  1.4km/h 3mph /  4.8km/h 67% 0in /  0.0mm 58 W/m2
11:13 64.4 °F /  18 °C 52.9 °F /  11.6 °C 29.9in /  1010.8hPa NNE 2.9mph /  4.7km/h 4mph /  6.4km/h 66% 0in /  0.0mm 62 W/m2
11:18 64.8 °F /  18.2 °C 53.6 °F /  12 °C 29.9in /  1010.8hPa Calm   3mph /  4.8km/h 67% 0in /  0.0mm 63 W/m2
11:23 65.5 °F /  18.6 °C 53.4 °F /  11.9 °C 29.9in /  1010.8hPa Calm   4mph /  6.4km/h 65% 0in /  0.0mm 67 W/m2
11:28 66 °F /  18.9 °C 53.4 °F /  11.9 °C 29.9in /  1010.8hPa ENE 0.9mph /  1.4km/h 2mph /  3.2km/h 64% 0in /  0.0mm 69 W/m2
11:33 66.6 °F /  19.2 °C 54 °F /  12.2 °C 29.9in /  1010.8hPa Calm   1mph /  1.6km/h 64% 0in /  0.0mm 74 W/m2
11:38 66.9 °F /  19.4 °C 54 °F /  12.2 °C 29.9in /  1010.8hPa NE 0.9mph /  1.4km/h 4mph /  6.4km/h 63% 0in /  0.0mm 255 W/m2
11:43 67.3 °F /  19.6 °C 54.3 °F /  12.4 °C 29.9in /  1010.8hPa NE 2mph /  3.2km/h 2mph /  3.2km/h 63% 0in /  0.0mm 485 W/m2
11:48 68.2 °F /  20.1 °C 54.7 °F /  12.6 °C 29.8in /  1010.5hPa ENE 2mph /  3.2km/h 4mph /  6.4km/h 62% 0in /  0.0mm 517 W/m2
11:53 68.7 °F /  20.4 °C 54.7 °F /  12.6 °C 29.8in /  1010.5hPa ENE 0.9mph /  1.4km/h 3mph /  4.8km/h 61% 0in /  0.0mm 526 W/m2
11:58 69.1 °F /  20.6 °C 54.7 °F /  12.6 °C 29.8in /  1010.5hPa ESE 4mph /  6.4km/h 4mph /  6.4km/h 60% 0in /  0.0mm 533 W/m2
12:03 69.4 °F /  20.8 °C 54.5 °F /  12.5 °C 29.8in /  1010.5hPa NNW 2mph /  3.2km/h 3mph /  4.8km/h 59% 0in /  0.0mm 540 W/m2
12:08 69.6 °F /  20.9 °C 55 °F /  12.8 °C 29.8in /  1010.5hPa Calm   4mph /  6.4km/h 60% 0in /  0.0mm 550 W/m2
12:13 70.2 °F /  21.2 °C 55.2 °F /  12.9 °C 29.8in /  1010.5hPa NE 0.9mph /  1.4km/h 4mph /  6.4km/h 59% 0in /  0.0mm 559 W/m2
12:18 70.9 °F /  21.6 °C 55.4 °F /  13 °C 29.8in /  1010.2hPa NE 2mph /  3.2km/h 4mph /  6.4km/h 58% 0in /  0.0mm 564 W/m2
12:23 71.4 °F /  21.9 °C 55.9 °F /  13.3 °C 29.8in /  1010.2hPa NE 2mph /  3.2km/h 3mph /  4.8km/h 58% 0in /  0.0mm 571 W/m2
12:28 72 °F /  22.2 °C 55.9 °F /  13.3 °C 29.8in /  1010.2hPa East 2.9mph /  4.7km/h 5mph /  8km/h 57% 0in /  0.0mm 577 W/m2
12:33 72.7 °F /  22.6 °C 56.5 °F /  13.6 °C 29.8in /  1010.2hPa NE 2mph /  3.2km/h 4mph /  6.4km/h 57% 0in /  0.0mm 589 W/m2
12:38 73 °F /  22.8 °C 56.5 °F /  13.6 °C 29.8in /  1010.2hPa ENE 2.9mph /  4.7km/h 8mph /  12.9km/h 56% 0in /  0.0mm 596 W/m2
12:43 73.2 °F /  22.9 °C 56.7 °F /  13.7 °C 29.8in /  1010.2hPa SW 0.9mph /  1.4km/h 3mph /  4.8km/h 56% 0in /  0.0mm 601 W/m2
12:48 73.6 °F /  23.1 °C 56.8 °F /  13.8 °C 29.8in /  1010.2hPa SE 2mph /  3.2km/h 6mph /  9.7km/h 56% 0in /  0.0mm 601 W/m2
12:53 74.1 °F /  23.4 °C 56.8 °F /  13.8 °C 29.8in /  1010.2hPa NE 0.9mph /  1.4km/h 3mph /  4.8km/h 55% 0in /  0.0mm 608 W/m2
12:58 74.1 °F /  23.4 °C 56.8 °F /  13.8 °C 29.8in /  1010.2hPa ENE 4mph /  6.4km/h 5mph /  8km/h 55% 0in /  0.0mm 610 W/m2
13:03 73.9 °F /  23.3 °C 56.8 °F /  13.8 °C 29.8in /  1009.8hPa ENE 2.9mph /  4.7km/h 4mph /  6.4km/h 55% 0in /  0.0mm 615 W/m2
13:08 74.5 °F /  23.6 °C 57.2 °F /  14 °C 29.8in /  1009.8hPa East 2mph /  3.2km/h 4mph /  6.4km/h 55% 0in /  0.0mm 617 W/m2
13:13 74.8 °F /  23.8 °C 57.6 °F /  14.2 °C 29.8in /  1009.8hPa NW 0.9mph /  1.4km/h 6mph /  9.7km/h 55% 0in /  0.0mm 613 W/m2
13:18 75 °F /  23.9 °C 57.7 °F /  14.3 °C 29.8in /  1009.5hPa North 0.9mph /  1.4km/h 4mph /  6.4km/h 55% 0in /  0.0mm 617 W/m2
13:23 75.4 °F /  24.1 °C 58.6 °F /  14.8 °C 29.8in /  1009.5hPa NE 2mph /  3.2km/h 4mph /  6.4km/h 56% 0in /  0.0mm 631 W/m2
13:28 76.1 °F /  24.5 °C 58.8 °F /  14.9 °C 29.8in /  1009.5hPa NE 2mph /  3.2km/h 4mph /  6.4km/h 55% 0in /  0.0mm 636 W/m2
13:33 76.8 °F /  24.9 °C 59 °F /  15 °C 29.8in /  1009.5hPa Calm   3mph /  4.8km/h 54% 0in /  0.0mm 636 W/m2
13:38 77.4 °F /  25.2 °C 58.8 °F /  14.9 °C 29.8in /  1009.5hPa NW 2mph /  3.2km/h 2mph /  3.2km/h 53% 0in /  0.0mm 636 W/m2
13:43 77.7 °F /  25.4 °C 59.7 °F /  15.4 °C 29.8in /  1009.1hPa ENE 0.9mph /  1.4km/h 2mph /  3.2km/h 54% 0in /  0.0mm 635 W/m2
13:48 77.7 °F /  25.4 °C 59.2 °F /  15.1 °C 29.8in /  1009.1hPa NNE 2mph /  3.2km/h 5mph /  8km/h 53% 0in /  0.0mm 645 W/m2
13:53 77.4 °F /  25.2 °C 58.8 °F /  14.9 °C 29.8in /  1009.5hPa NNW 4mph /  6.4km/h 6mph /  9.7km/h 53% 0in /  0.0mm 631 W/m2
13:58 77.4 °F /  25.2 °C 57.2 °F /  14 °C 29.8in /  1009.5hPa NE 2mph /  3.2km/h 2mph /  3.2km/h 50% 0in /  0.0mm 642 W/m2
14:03 77.4 °F /  25.2 °C 57.7 °F /  14.3 °C 29.8in /  1009.1hPa SSW 5mph /  8km/h 5mph /  8km/h 51% 0in /  0.0mm 622 W/m2
14:08 77.4 °F /  25.2 °C 55 °F /  12.8 °C 29.8in /  1009.1hPa West 6mph /  9.7km/h 6mph /  9.7km/h 46% 0in /  0.0mm 628 W/m2
14:13 77.4 °F /  25.2 °C 54.3 °F /  12.4 °C 29.8in /  1009.1hPa WNW 0.9mph /  1.4km/h 4mph /  6.4km/h 45% 0in /  0.0mm 629 W/m2
14:18 77.5 °F /  25.3 °C 53.2 °F /  11.8 °C 29.8in /  1009.1hPa ENE 0.9mph /  1.4km/h 5mph /  8km/h 43% 0in /  0.0mm 631 W/m2
14:23 77.7 °F /  25.4 °C 52.2 °F /  11.2 °C 29.8in /  1009.1hPa Calm   3mph /  4.8km/h 41% 0in /  0.0mm 621 W/m2
14:28 77.9 °F /  25.5 °C 51.6 °F /  10.9 °C 29.8in /  1009.1hPa Calm   5mph /  8km/h 40% 0in /  0.0mm 619 W/m2
14:33 78.4 °F /  25.8 °C 50.7 °F /  10.4 °C 29.8in /  1009.1hPa NW 0.9mph /  1.4km/h 2mph /  3.2km/h 38% 0in /  0.0mm 621 W/m2
14:38 79 °F /  26.1 °C 49.8 °F /  9.9 °C 29.8in /  1009.1hPa NW 2mph /  3.2km/h 5mph /  8km/h 36% 0in /  0.0mm 612 W/m2
14:43 78.8 °F /  26 °C 49.6 °F /  9.8 °C 29.8in /  1008.8hPa NW 4mph /  6.4km/h 4mph /  6.4km/h 36% 0in /  0.0mm 605 W/m2
14:48 78.8 °F /  26 °C 48 °F /  8.9 °C 29.8in /  1009.1hPa WNW 2mph /  3.2km/h 8mph /  12.9km/h 34% 0in /  0.0mm 601 W/m2
14:53 78.6 °F /  25.9 °C 47.8 °F /  8.8 °C 29.8in /  1009.1hPa West 4mph /  6.4km/h 5mph /  8km/h 34% 0in /  0.0mm 596 W/m2
14:58 78.6 °F /  25.9 °C 48.7 °F /  9.3 °C 29.8in /  1008.8hPa SW 2.9mph /  4.7km/h 4mph /  6.4km/h 35% 0in /  0.0mm 591 W/m2
15:03 78.8 °F /  26 °C 48 °F /  8.9 °C 29.8in /  1008.8hPa West 4mph /  6.4km/h 9mph /  14.5km/h 34% 0in /  0.0mm 587 W/m2
15:08 78.6 °F /  25.9 °C 47.8 °F /  8.8 °C 29.8in /  1008.8hPa Calm   3mph /  4.8km/h 34% 0in /  0.0mm 584 W/m2
15:13 79.2 °F /  26.2 °C 49.1 °F /  9.5 °C 29.8in /  1008.8hPa East 4mph /  6.4km/h 9mph /  14.5km/h 35% 0in /  0.0mm 578 W/m2
15:18 79.5 °F /  26.4 °C 48.7 °F /  9.3 °C 29.8in /  1008.5hPa West 8.9mph /  14.3km/h 9mph /  14.5km/h 34% 0in /  0.0mm 570 W/m2
15:23 79.2 °F /  26.2 °C 49.1 °F /  9.5 °C 29.8in /  1008.5hPa ENE 2mph /  3.2km/h 3mph /  4.8km/h 35% 0in /  0.0mm 563 W/m2
15:28 79.5 °F /  26.4 °C 49.5 °F /  9.7 °C 29.8in /  1008.5hPa West 6.9mph /  11.1km/h 9mph /  14.5km/h 35% 0in /  0.0mm 559 W/m2
15:33 79.5 °F /  26.4 °C 48.7 °F /  9.3 °C 29.8in /  1008.5hPa West 2.9mph /  4.7km/h 6mph /  9.7km/h 34% 0in /  0.0mm 555 W/m2
15:38 79.5 °F /  26.4 °C 48.7 °F /  9.3 °C 29.8in /  1008.5hPa West 2.9mph /  4.7km/h 8mph /  12.9km/h 34% 0in /  0.0mm 547 W/m2
15:43 79.5 °F /  26.4 °C 49.5 °F /  9.7 °C 29.8in /  1008.5hPa ESE 6.9mph /  11.1km/h 7mph /  11.3km/h 35% 0in /  0.0mm 538 W/m2
15:48 79.3 °F /  26.3 °C 49.3 °F /  9.6 °C 29.8in /  1008.5hPa West 2.9mph /  4.7km/h 4mph /  6.4km/h 35% 0in /  0.0mm 529 W/m2
15:53 79.5 °F /  26.4 °C 50.2 °F /  10.1 °C 29.8in /  1008.5hPa ENE 0.9mph /  1.4km/h 3mph /  4.8km/h 36% 0in /  0.0mm 517 W/m2
15:58 80.1 °F /  26.7 °C 50 °F /  10 °C 29.8in /  1008.1hPa SE 2mph /  3.2km/h 3mph /  4.8km/h 35% 0in /  0.0mm 504 W/m2
16:03 80.6 °F /  27 °C 51.3 °F /  10.7 °C 29.8in /  1008.1hPa WNW 0.9mph /  1.4km/h 2mph /  3.2km/h 36% 0in /  0.0mm 492 W/m2
16:08 80.8 °F /  27.1 °C 49.8 °F /  9.9 °C 29.8in /  1008.1hPa WNW 2.9mph /  4.7km/h 5mph /  8km/h 34% 0in /  0.0mm 485 W/m2
16:13 80.6 °F /  27 °C 49.6 °F /  9.8 °C 29.8in /  1008.1hPa West 4mph /  6.4km/h 7mph /  11.3km/h 34% 0in /  0.0mm 469 W/m2
16:18 80.2 °F /  26.8 °C 50.2 °F /  10.1 °C 29.8in /  1008.1hPa Calm   3mph /  4.8km/h 35% 0in /  0.0mm 461 W/m2
16:23 80.2 °F /  26.8 °C 50.2 °F /  10.1 °C 29.8in /  1008.1hPa WNW 2mph /  3.2km/h 7mph /  11.3km/h 35% 0in /  0.0mm 457 W/m2
16:28 80.2 °F /  26.8 °C 50.2 °F /  10.1 °C 29.8in /  1008.1hPa WSW 2.9mph /  4.7km/h 3mph /  4.8km/h 35% 0in /  0.0mm 448 W/m2
16:33 80.1 °F /  26.7 °C 49.1 °F /  9.5 °C 29.8in /  1007.8hPa WNW 4mph /  6.4km/h 7mph /  11.3km/h 34% 0in /  0.0mm 431 W/m2
16:38 80.2 °F /  26.8 °C 48.6 °F /  9.2 °C 29.8in /  1007.8hPa NW 4mph /  6.4km/h 7mph /  11.3km/h 33% 0in /  0.0mm 422 W/m2
16:43 80.2 °F /  26.8 °C 48.6 °F /  9.2 °C 29.8in /  1007.8hPa WNW 2.9mph /  4.7km/h 8mph /  12.9km/h 33% 0in /  0.0mm 406 W/m2
16:48 80.2 °F /  26.8 °C 47.7 °F /  8.7 °C 29.8in /  1007.5hPa NW 4mph /  6.4km/h 7mph /  11.3km/h 32% 0in /  0.0mm 359 W/m2
16:53 80.2 °F /  26.8 °C 48.6 °F /  9.2 °C 29.8in /  1007.5hPa WNW 2.9mph /  4.7km/h 8mph /  12.9km/h 33% 0in /  0.0mm 357 W/m2
16:58 80.4 °F /  26.9 °C 47.8 °F /  8.8 °C 29.8in /  1007.5hPa SW 2.9mph /  4.7km/h 7mph /  11.3km/h 32% 0in /  0.0mm 366 W/m2
17:03 80.4 °F /  26.9 °C 47.8 °F /  8.8 °C 29.8in /  1007.5hPa West 2mph /  3.2km/h 4mph /  6.4km/h 32% 0in /  0.0mm 352 W/m2
17:08 80.4 °F /  26.9 °C 47.8 °F /  8.8 °C 29.8in /  1007.5hPa West 2mph /  3.2km/h 5mph /  8km/h 32% 0in /  0.0mm 338 W/m2
17:13 80.4 °F /  26.9 °C 47.8 °F /  8.8 °C 29.8in /  1007.5hPa West 2.9mph /  4.7km/h 10mph /  16.1km/h 32% 0in /  0.0mm 329 W/m2
17:19 79.9 °F /  26.6 °C 48.2 °F /  9 °C 29.7in /  1007.1hPa Calm   3mph /  4.8km/h 33% 0in /  0.0mm 309 W/m2
17:24 79.9 °F /  26.6 °C 48.9 °F /  9.4 °C 29.7in /  1007.1hPa West 6mph /  9.7km/h 10mph /  16.1km/h 34% 0in /  0.0mm 302 W/m2
17:29 79.9 °F /  26.6 °C 48.9 °F /  9.4 °C 29.7in /  1007.1hPa Calm   4mph /  6.4km/h 34% 0in /  0.0mm 285 W/m2
17:34 79.9 °F /  26.6 °C 48.9 °F /  9.4 °C 29.7in /  1006.8hPa NW 0.9mph /  1.4km/h 8mph /  12.9km/h 34% 0in /  0.0mm 276 W/m2
17:39 80.1 °F /  26.7 °C 50 °F /  10 °C 29.7in /  1006.8hPa West 2mph /  3.2km/h 3mph /  4.8km/h 35% 0in /  0.0mm 255 W/m2
17:44 80.1 °F /  26.7 °C 49.1 °F /  9.5 °C 29.7in /  1006.8hPa WNW 2.9mph /  4.7km/h 4mph /  6.4km/h 34% 0in /  0.0mm 246 W/m2
17:49 79.9 °F /  26.6 °C 48.9 °F /  9.4 °C 29.7in /  1006.8hPa WNW 2.9mph /  4.7km/h 5mph /  8km/h 34% 0in /  0.0mm 234 W/m2
17:54 79.5 °F /  26.4 °C 48.7 °F /  9.3 °C 29.7in /  1006.8hPa WNW 4mph /  6.4km/h 5mph /  8km/h 34% 0in /  0.0mm 214 W/m2
17:59 79.5 °F /  26.4 °C 49.5 °F /  9.7 °C 29.7in /  1006.8hPa WNW 2.9mph /  4.7km/h 3mph /  4.8km/h 35% 0in /  0.0mm 197 W/m2
18:04 79.3 °F /  26.3 °C 49.3 °F /  9.6 °C 29.7in /  1006.8hPa West 0.9mph /  1.4km/h 6mph /  9.7km/h 35% 0in /  0.0mm 74 W/m2
18:09 79 °F /  26.1 °C 49.8 °F /  9.9 °C 29.7in /  1006.4hPa WSW 0.9mph /  1.4km/h 3mph /  4.8km/h 36% 0in /  0.0mm 167 W/m2
18:14 79 °F /  26.1 °C 49.8 °F /  9.9 °C 29.7in /  1006.4hPa WSW 0.9mph /  1.4km/h 5mph /  8km/h 36% 0in /  0.0mm 155 W/m2
18:19 78.6 °F /  25.9 °C 49.5 °F /  9.7 °C 29.7in /  1006.4hPa SW 0.9mph /  1.4km/h 3mph /  4.8km/h 36% 0in /  0.0mm 144 W/m2
18:24 78.6 °F /  25.9 °C 50.2 °F /  10.1 °C 29.7in /  1006.4hPa SW 2mph /  3.2km/h 2mph /  3.2km/h 37% 0in /  0.0mm 132 W/m2
18:29 78.3 °F /  25.7 °C 49.8 °F /  9.9 °C 29.7in /  1006.8hPa WNW 0.9mph /  1.4km/h 3mph /  4.8km/h 37% 0in /  0.0mm 49 W/m2
18:34 77.5 °F /  25.3 °C 50.5 °F /  10.3 °C 29.7in /  1006.8hPa Calm     39% 0in /  0.0mm 44 W/m2
18:39 77 °F /  25 °C 50.2 °F /  10.1 °C 29.7in /  1006.8hPa WNW 2mph /  3.2km/h 3mph /  4.8km/h 39% 0in /  0.0mm 35 W/m2
18:44 76.5 °F /  24.7 °C 49.6 °F /  9.8 °C 29.7in /  1006.8hPa WNW 0.9mph /  1.4km/h 4mph /  6.4km/h 39% 0in /  0.0mm 33 W/m2
18:49 75.9 °F /  24.4 °C 50.5 °F /  10.3 °C 29.7in /  1006.4hPa WNW 0.9mph /  1.4km/h 2mph /  3.2km/h 41% 0in /  0.0mm 28 W/m2
18:54 75.4 °F /  24.1 °C 49.5 °F /  9.7 °C 29.7in /  1006.4hPa West 0.9mph /  1.4km/h 4mph /  6.4km/h 40% 0in /  0.0mm 25 W/m2
18:59 74.8 °F /  23.8 °C 49.6 °F /  9.8 °C 29.7in /  1006.4hPa WSW 0.9mph /  1.4km/h 3mph /  4.8km/h 41% 0in /  0.0mm 21 W/m2
19:04 74.3 °F /  23.5 °C 49.1 °F /  9.5 °C 29.7in /  1006.4hPa WSW 0.9mph /  1.4km/h 3mph /  4.8km/h 41% 0in /  0.0mm 16 W/m2
19:09 73.9 °F /  23.3 °C 50 °F /  10 °C 29.7in /  1006.4hPa SW 0.9mph /  1.4km/h 2mph /  3.2km/h 43% 0in /  0.0mm 16 W/m2
19:14 73.6 °F /  23.1 °C 49.1 °F /  9.5 °C 29.7in /  1006.8hPa WSW 0.9mph /  1.4km/h 3mph /  4.8km/h 42% 0in /  0.0mm 14 W/m2
19:19 73 °F /  22.8 °C 49.3 °F /  9.6 °C 29.7in /  1006.4hPa West 2.9mph /  4.7km/h 3mph /  4.8km/h 43% 0in /  0.0mm 12 W/m2
19:24 72.9 °F /  22.7 °C 49.1 °F /  9.5 °C 29.7in /  1006.4hPa West 0.9mph /  1.4km/h 3mph /  4.8km/h 43% 0in /  0.0mm 9 W/m2
19:29 72.7 °F /  22.6 °C 48.2 °F /  9 °C 29.7in /  1006.4hPa WSW 4mph /  6.4km/h 4mph /  6.4km/h 42% 0in /  0.0mm 7 W/m2
19:34 72.7 °F /  22.6 °C 48.2 °F /  9 °C 29.7in /  1006.4hPa WSW 4mph /  6.4km/h 4mph /  6.4km/h 42% 0in /  0.0mm 5 W/m2
19:39 72.7 °F /  22.6 °C 48.2 °F /  9 °C 29.7in /  1006.4hPa WSW 0.9mph /  1.4km/h 4mph /  6.4km/h 42% 0in /  0.0mm 0 W/m2
19:44 72.7 °F /  22.6 °C 48.2 °F /  9 °C 29.7in /  1006.4hPa WSW 2.9mph /  4.7km/h 4mph /  6.4km/h 42% 0in /  0.0mm 0 W/m2
19:49 72.5 °F /  22.5 °C 47.5 °F /  8.6 °C 29.7in /  1006.4hPa WSW 0.9mph /  1.4km/h 3mph /  4.8km/h 41% 0in /  0.0mm 0 W/m2
19:54 72.3 °F /  22.4 °C 48 °F /  8.9 °C 29.7in /  1006.4hPa West 2.9mph /  4.7km/h 5mph /  8km/h 42% 0in /  0.0mm 0 W/m2
19:59 72.1 °F /  22.3 °C 48.4 °F /  9.1 °C 29.7in /  1006.8hPa WNW 0.9mph /  1.4km/h 4mph /  6.4km/h 43% 0in /  0.0mm 0 W/m2
20:04 72 °F /  22.2 °C 47.7 °F /  8.7 °C 29.7in /  1006.4hPa West 0.9mph /  1.4km/h 5mph /  8km/h 42% 0in /  0.0mm 0 W/m2
20:09 71.6 °F /  22 °C 49.1 °F /  9.5 °C 29.7in /  1006.4hPa West 0.9mph /  1.4km/h 2mph /  3.2km/h 45% 0in /  0.0mm 0 W/m2
20:14 71.1 °F /  21.7 °C 49.3 °F /  9.6 °C 29.7in /  1006.8hPa Calm   2mph /  3.2km/h 46% 0in /  0.0mm 0 W/m2
20:19 70.5 °F /  21.4 °C 49.3 °F /  9.6 °C 29.7in /  1006.4hPa WNW 0.9mph /  1.4km/h 2mph /  3.2km/h 47% 0in /  0.0mm 0 W/m2
20:24 70 °F /  21.1 °C 49.5 °F /  9.7 °C 29.7in /  1006.8hPa WNW 0.9mph /  1.4km/h 2mph /  3.2km/h 48% 0in /  0.0mm 0 W/m2
20:29 69.6 °F /  20.9 °C 48.6 °F /  9.2 °C 29.7in /  1006.4hPa West 0.9mph /  1.4km/h 2mph /  3.2km/h 47% 0in /  0.0mm 0 W/m2
20:34 69.4 °F /  20.8 °C 47.8 °F /  8.8 °C 29.7in /  1006.8hPa West 2mph /  3.2km/h 3mph /  4.8km/h 46% 0in /  0.0mm 0 W/m2
20:39 69.4 °F /  20.8 °C 47.1 °F /  8.4 °C 29.7in /  1006.8hPa West 2mph /  3.2km/h 3mph /  4.8km/h 45% 0in /  0.0mm 0 W/m2
20:44 69.6 °F /  20.9 °C 47.3 °F /  8.5 °C 29.7in /  1006.8hPa WSW 2.9mph /  4.7km/h 4mph /  6.4km/h 45% 0in /  0.0mm 0 W/m2
20:49 70.3 °F /  21.3 °C 46.2 °F /  7.9 °C 29.7in /  1006.8hPa West 2mph /  3.2km/h 4mph /  6.4km/h 42% 0in /  0.0mm 0 W/m2
20:54 70.9 °F /  21.6 °C 46.6 °F /  8.1 °C 29.7in /  1006.8hPa WNW 2mph /  3.2km/h 4mph /  6.4km/h 42% 0in /  0.0mm 0 W/m2
20:59 71.2 °F /  21.8 °C 46.9 °F /  8.3 °C 29.7in /  1006.8hPa West 2mph /  3.2km/h 2mph /  3.2km/h 42% 0in /  0.0mm 0 W/m2
21:04 71.4 °F /  21.9 °C 45.9 °F /  7.7 °C 29.7in /  1006.8hPa WNW 0.9mph /  1.4km/h 6mph /  9.7km/h 40% 0in /  0.0mm 0 W/m2
21:09 71.8 °F /  22.1 °C 46.2 °F /  7.9 °C 29.7in /  1006.8hPa West 2.9mph /  4.7km/h 6mph /  9.7km/h 40% 0in /  0.0mm 0 W/m2
21:14 72 °F /  22.2 °C 46.4 °F /  8 °C 29.7in /  1006.8hPa WSW 2.9mph /  4.7km/h 9mph /  14.5km/h 40% 0in /  0.0mm 0 W/m2
21:19 72 °F /  22.2 °C 46.4 °F /  8 °C 29.7in /  1006.8hPa West 6.9mph /  11.1km/h 7mph /  11.3km/h 40% 0in /  0.0mm 0 W/m2
21:24 72 °F /  22.2 °C 46.4 °F /  8 °C 29.7in /  1006.8hPa West 6.9mph /  11.1km/h 7mph /  11.3km/h 40% 0in /  0.0mm 0 W/m2
21:29 72 °F /  22.2 °C 46.4 °F /  8 °C 29.7in /  1006.8hPa WNW 2mph /  3.2km/h 10mph /  16.1km/h 40% 0in /  0.0mm 0 W/m2
21:34 71.8 °F /  22.1 °C 46.2 °F /  7.9 °C 29.7in /  1006.8hPa West 2mph /  3.2km/h 6mph /  9.7km/h 40% 0in /  0.0mm 0 W/m2
21:39 71.8 °F /  22.1 °C 46.8 °F /  8.2 °C 29.7in /  1006.8hPa West 2.9mph /  4.7km/h 10mph /  16.1km/h 41% 0in /  0.0mm 0 W/m2
21:44 71.4 °F /  21.9 °C 46.6 °F /  8.1 °C 29.7in /  1006.8hPa WNW 4mph /  6.4km/h 6mph /  9.7km/h 41% 0in /  0.0mm 0 W/m2
21:49 71.2 °F /  21.8 °C 46.4 °F /  8 °C 29.7in /  1007.1hPa West 4mph /  6.4km/h 7mph /  11.3km/h 41% 0in /  0.0mm 0 W/m2
21:54 71.1 °F /  21.7 °C 46.2 °F /  7.9 °C 29.7in /  1007.1hPa West 4mph /  6.4km/h 6mph /  9.7km/h 41% 0in /  0.0mm 0 W/m2
21:59 70.9 °F /  21.6 °C 46 °F /  7.8 °C 29.7in /  1007.1hPa WNW 4mph /  6.4km/h 6mph /  9.7km/h 41% 0in /  0.0mm 0 W/m2
22:04 70.7 °F /  21.5 °C 46.4 °F /  8 °C 29.7in /  1007.1hPa WNW 6mph /  9.7km/h 8mph /  12.9km/h 42% 0in /  0.0mm 0 W/m2
22:09 70.5 °F /  21.4 °C 46.4 °F /  8 °C 29.7in /  1007.1hPa West 4mph /  6.4km/h 7mph /  11.3km/h 42% 0in /  0.0mm 0 W/m2
22:14 70.3 °F /  21.3 °C 46.2 °F /  7.9 °C 29.7in /  1007.1hPa NW 0.9mph /  1.4km/h 8mph /  12.9km/h 42% 0in /  0.0mm 0 W/m2
22:19 70.3 °F /  21.3 °C 46.2 °F /  7.9 °C 29.7in /  1007.1hPa West 2.9mph /  4.7km/h 8mph /  12.9km/h 42% 0in /  0.0mm 0 W/m2
22:24 70.3 °F /  21.3 °C 45.5 °F /  7.5 °C 29.7in /  1006.8hPa WSW 2mph /  3.2km/h 4mph /  6.4km/h 41% 0in /  0.0mm 0 W/m2
22:29 70.2 °F /  21.2 °C 45.3 °F /  7.4 °C 29.7in /  1006.8hPa West 4mph /  6.4km/h 8mph /  12.9km/h 41% 0in /  0.0mm 0 W/m2
22:34 70.2 °F /  21.2 °C 45.3 °F /  7.4 °C 29.7in /  1006.8hPa West 2mph /  3.2km/h 4mph /  6.4km/h 41% 0in /  0.0mm 0 W/m2
22:39 70.2 °F /  21.2 °C 45.3 °F /  7.4 °C 29.7in /  1006.8hPa WNW 2mph /  3.2km/h 6mph /  9.7km/h 41% 0in /  0.0mm 0 W/m2
22:44 70.2 °F /  21.2 °C 45.3 °F /  7.4 °C 29.7in /  1006.8hPa WSW 2mph /  3.2km/h 4mph /  6.4km/h 41% 0in /  0.0mm 0 W/m2
22:49 70.2 °F /  21.2 °C 46 °F /  7.8 °C 29.7in /  1006.8hPa NW 0.9mph /  1.4km/h 3mph /  4.8km/h 42% 0in /  0.0mm 0 W/m2
22:54 70 °F /  21.1 °C 45.9 °F /  7.7 °C 29.7in /  1006.8hPa WSW 2mph /  3.2km/h 6mph /  9.7km/h 42% 0in /  0.0mm 0 W/m2
22:59 69.6 °F /  20.9 °C 45.5 °F /  7.5 °C 29.7in /  1006.8hPa Calm   4mph /  6.4km/h 42% 0in /  0.0mm 0 W/m2
23:04 69.6 °F /  20.9 °C 45.5 °F /  7.5 °C 29.7in /  1006.8hPa NW 0.9mph /  1.4km/h 6mph /  9.7km/h 42% 0in /  0.0mm 0 W/m2
23:09 69.4 °F /  20.8 °C 46 °F /  7.8 °C 29.7in /  1006.8hPa Calm   1mph /  1.6km/h 43% 0in /  0.0mm 0 W/m2
23:14 69.1 °F /  20.6 °C 45.7 °F /  7.6 °C 29.7in /  1006.8hPa Calm   3mph /  4.8km/h 43% 0in /  0.0mm 0 W/m2
23:19 68.7 °F /  20.4 °C 45.3 °F /  7.4 °C 29.7in /  1006.8hPa SW 0.9mph /  1.4km/h 3mph /  4.8km/h 43% 0in /  0.0mm 0 W/m2
23:24 68.5 °F /  20.3 °C 45.1 °F /  7.3 °C 29.7in /  1006.8hPa West 2mph /  3.2km/h 3mph /  4.8km/h 43% 0in /  0.0mm 0 W/m2
23:29 68.4 °F /  20.2 °C 45 °F /  7.2 °C 29.7in /  1006.8hPa West 2.9mph /  4.7km/h 3mph /  4.8km/h 43% 0in /  0.0mm 0 W/m2
23:34 68.4 °F /  20.2 °C 45.7 °F /  7.6 °C 29.7in /  1006.8hPa WNW 0.9mph /  1.4km/h 1mph /  1.6km/h 44% 0in /  0.0mm 0 W/m2
23:39 68.2 °F /  20.1 °C 44.8 °F /  7.1 °C 29.7in /  1006.8hPa West 2mph /  3.2km/h 4mph /  6.4km/h 43% 0in /  0.0mm 0 W/m2
23:44 68.2 °F /  20.1 °C 44.8 °F /  7.1 °C 29.7in /  1007.1hPa WSW 2.9mph /  4.7km/h 3mph /  4.8km/h 43% 0in /  0.0mm 0 W/m2
23:49 68.2 °F /  20.1 °C 45.5 °F /  7.5 °C 29.7in /  1007.1hPa West 0.9mph /  1.4km/h 2mph /  3.2km/h 44% 0in /  0.0mm 0 W/m2
23:54 68.2 °F /  20.1 °C 44.8 °F /  7.1 °C 29.7in /  1006.8hPa West 0.9mph /  1.4km/h 7mph /  11.3km/h 43% 0in /  0.0mm 0 W/m2
23:59 68.2 °F /  20.1 °C 44.8 °F /  7.1 °C 29.7in /  1006.8hPa WNW 2.9mph /  4.7km/h 6mph /  9.7km/h 43% 0in /  0.0mm 0 W/m2
Juneau County Weather
Compliments of Weather Underground - 4 mb